Alta, California
Current Conditions -  °F | °C
As of 11:52 PM on Friday 24 Oct 2014 (Local Time) from KBLU Reporting Station
Clear Clear  
Wind Chill: 56°   Ceiling: Unl
Heat Index: 56°   Visibility: 10mi
Dew Point: 29°   Wind: 13mph
Humidity: 36%   Direction: 160°SSE
Pressure: 30.05"   Gusts: 26mph
Location:  39.21°N, 120.81°W
Report Text: KBLU 250652Z AUTO 16011G23KT 10SM CLR 13/M02 A3005 RMK AO2 SLP107 T01331017
Loading
Personal Weather Stations






























Interactive Weather Map
Tropical Storm Tracking
New forecast layout! Learn more

10-Day Weather Forecast

Advertisements
Track Severe Weather on mobile